Time,TemperatureF,DewpointF,PressureIn,WindDirection,WindDirectionDegrees,WindSpeedMPH,WindSpeedGustMPH,Humidity,HourlyPrecipIn,Conditions,Clouds,dailyrainin,SolarRadiationWatts/m^2,SoftwareType,DateUTC
2013-05-12 00:00:00,56.7,55.0,29.72,SSE,160,0.0,0.0,94,0.00,,,0.00,0,WeatherCatV1.15B25,2013-05-12 04:00:00,
2013-05-12 00:01:00,56.6,54.9,29.72,SSE,160,0.0,0.0,94,0.00,,,0.00,0,WeatherCatV1.15B25,2013-05-12 04:01:00,
2013-05-12 00:06:00,56.5,54.8,29.72,NE,44,0.0,0.0,94,0.00,,,0.00,0,WeatherCatV1.15B25,2013-05-12 04:06:00,
2013-05-12 00:11:00,56.4,54.7,29.72,NE,44,0.0,0.0,94,0.00,,,0.00,0,WeatherCatV1.15B25,2013-05-12 04:11:00,
2013-05-12 00:16:00,56.2,54.5,29.72,NE,44,0.0,0.0,94,0.00,,,0.00,0,WeatherCatV1.15B25,2013-05-12 04:16:00,
2013-05-12 00:21:00,56.1,54.4,29.72,SE,137,0.0,0.0,94,0.00,,,0.00,0,WeatherCatV1.15B25,2013-05-12 04:21:00,
2013-05-12 00:26:00,55.9,53.9,29.72,SE,138,0.0,0.0,93,0.00,,,0.00,0,WeatherCatV1.15B25,2013-05-12 04:26:00,
2013-05-12 00:31:00,55.8,54.1,29.72,SE,137,0.0,0.0,94,0.00,,,0.00,0,WeatherCatV1.15B25,2013-05-12 04:31:00,
2013-05-12 00:36:00,55.8,54.1,29.72,SE,138,0.0,0.0,94,0.00,,,0.00,0,WeatherCatV1.15B25,2013-05-12 04:36:00,
2013-05-12 00:41:00,55.7,54.0,29.72,East,96,0.0,0.0,94,0.00,,,0.00,0,WeatherCatV1.15B25,2013-05-12 04:41:00,
2013-05-12 00:46:00,55.5,53.5,29.72,East,96,0.0,0.0,93,0.00,,,0.00,0,WeatherCatV1.15B25,2013-05-12 04:46:00,
2013-05-12 00:51:00,55.3,53.3,29.72,East,96,0.0,0.0,93,0.00,,,0.00,0,WeatherCatV1.15B25,2013-05-12 04:51:00,
2013-05-12 00:56:00,55.1,53.1,29.72,East,96,0.0,0.0,93,0.00,,,0.00,0,WeatherCatV1.15B25,2013-05-12 04:56:00,
2013-05-12 01:01:00,55.0,53.0,29.72,East,96,0.0,0.0,93,0.00,,,0.00,0,WeatherCatV1.15B25,2013-05-12 05:01:00,
2013-05-12 01:06:00,55.0,53.0,29.72,East,96,0.0,0.0,93,0.00,,,0.00,0,WeatherCatV1.15B25,2013-05-12 05:06:00,
2013-05-12 01:11:00,54.8,52.8,29.72,East,96,0.0,0.0,93,0.00,,,0.00,0,WeatherCatV1.15B25,2013-05-12 05:11:00,
2013-05-12 01:16:00,54.6,52.6,29.71,East,96,0.0,0.0,93,0.00,,,0.00,0,WeatherCatV1.15B25,2013-05-12 05:16:00,
2013-05-12 01:21:00,54.4,52.4,29.71,NNE,19,0.0,0.0,93,0.00,,,0.00,0,WeatherCatV1.15B25,2013-05-12 05:21:00,
2013-05-12 01:26:00,54.2,51.9,29.71,NNE,19,0.0,0.0,92,0.00,,,0.00,0,WeatherCatV1.15B25,2013-05-12 05:26:00,
2013-05-12 01:31:00,54.0,51.7,29.71,NNE,18,0.0,0.0,92,0.00,,,0.00,0,WeatherCatV1.15B25,2013-05-12 05:31:00,
2013-05-12 01:36:00,53.9,51.9,29.71,NNE,18,0.0,0.0,93,0.00,,,0.00,0,WeatherCatV1.15B25,2013-05-12 05:36:00,
2013-05-12 01:41:00,53.6,51.3,29.70,NNE,19,0.0,0.0,92,0.00,,,0.00,0,WeatherCatV1.15B25,2013-05-12 05:41:00,
2013-05-12 01:46:00,53.4,51.1,29.71,NNE,19,0.0,0.0,92,0.00,,,0.00,0,WeatherCatV1.15B25,2013-05-12 05:46:00,
2013-05-12 01:51:00,53.3,51.3,29.71,NNE,19,0.0,0.0,93,0.00,,,0.00,0,WeatherCatV1.15B25,2013-05-12 05:51:00,
2013-05-12 01:56:00,53.1,51.1,29.71,NNE,19,0.0,0.0,93,0.00,,,0.00,0,WeatherCatV1.15B25,2013-05-12 05:56:00,
2013-05-12 02:01:00,52.9,50.9,29.71,NNE,22,0.0,0.0,93,0.00,,,0.00,0,WeatherCatV1.15B25,2013-05-12 06:01:00,
2013-05-12 02:06:00,52.6,50.6,29.71,ENE,57,0.0,0.0,93,0.00,,,0.00,0,WeatherCatV1.15B25,2013-05-12 06:06:00,
2013-05-12 02:11:00,52.3,50.3,29.71,NE,49,0.0,0.0,93,0.00,,,0.00,0,WeatherCatV1.15B25,2013-05-12 06:11:00,
2013-05-12 02:16:00,52.2,49.9,29.71,NE,49,0.0,0.0,92,0.00,,,0.00,0,WeatherCatV1.15B25,2013-05-12 06:16:00,
2013-05-12 02:21:00,51.9,49.4,29.72,NE,51,0.0,0.0,91,0.00,,,0.00,0,WeatherCatV1.15B25,2013-05-12 06:21:00,
2013-05-12 02:26:00,51.7,49.2,29.71,East,92,0.0,0.0,91,0.00,,,0.00,0,WeatherCatV1.15B25,2013-05-12 06:26:00,
2013-05-12 02:31:00,51.5,48.7,29.71,East,101,0.0,0.0,90,0.00,,,0.00,0,WeatherCatV1.15B25,2013-05-12 06:31:00,
2013-05-12 02:36:00,51.5,48.7,29.71,ESE,115,0.0,0.0,90,0.00,,,0.00,0,WeatherCatV1.15B25,2013-05-12 06:36:00,
2013-05-12 02:41:00,51.5,48.7,29.71,North,0,0.0,0.0,90,0.00,,,0.00,0,WeatherCatV1.15B25,2013-05-12 06:41:00,
2013-05-12 02:46:00,51.4,48.6,29.71,North,5,0.0,1.0,90,0.00,,,0.00,0,WeatherCatV1.15B25,2013-05-12 06:46:00,
2013-05-12 02:51:00,51.3,48.2,29.71,NE,47,0.0,1.0,89,0.00,,,0.00,0,WeatherCatV1.15B25,2013-05-12 06:51:00,
2013-05-12 02:56:00,51.1,48.0,29.71,NE,48,1.0,1.0,89,0.00,,,0.00,0,WeatherCatV1.15B25,2013-05-12 06:56:00,
2013-05-12 03:01:00,50.9,47.5,29.71,NE,48,0.0,0.0,88,0.00,,,0.00,0,WeatherCatV1.15B25,2013-05-12 07:01:00,
2013-05-12 03:06:00,50.8,47.7,29.72,NE,48,0.0,0.0,89,0.00,,,0.00,0,WeatherCatV1.15B25,2013-05-12 07:06:00,
2013-05-12 03:11:00,50.7,47.9,29.72,NE,48,0.0,0.0,90,0.00,,,0.00,0,WeatherCatV1.15B25,2013-05-12 07:11:00,
2013-05-12 03:16:00,50.5,47.4,29.71,NE,48,0.0,0.0,89,0.00,,,0.00,0,WeatherCatV1.15B25,2013-05-12 07:16:00,
2013-05-12 03:21:00,50.2,47.1,29.71,NE,48,0.0,0.0,89,0.00,,,0.00,0,WeatherCatV1.15B25,2013-05-12 07:21:00,
2013-05-12 03:26:00,49.9,47.1,29.71,NE,48,0.0,0.0,90,0.00,,,0.00,0,WeatherCatV1.15B25,2013-05-12 07:26:00,
2013-05-12 03:31:00,49.6,46.5,29.71,WSW,254,0.0,0.0,89,0.00,,,0.00,0,WeatherCatV1.15B25,2013-05-12 07:31:00,
2013-05-12 03:36:00,49.5,46.4,29.70,SW,222,0.0,2.0,89,0.00,,,0.00,0,WeatherCatV1.15B25,2013-05-12 07:36:00,
2013-05-12 03:41:00,49.4,46.6,29.70,ENE,67,1.0,1.0,90,0.00,,,0.00,0,WeatherCatV1.15B25,2013-05-12 07:41:00,
2013-05-12 03:46:00,49.2,46.4,29.71,ENE,69,0.0,0.0,90,0.00,,,0.00,0,WeatherCatV1.15B25,2013-05-12 07:46:00,
2013-05-12 03:51:00,49.1,45.7,29.70,ENE,68,0.0,2.0,88,0.00,,,0.00,0,WeatherCatV1.15B25,2013-05-12 07:51:00,
2013-05-12 03:56:00,49.0,45.0,29.71,East,84,0.0,2.0,86,0.00,,,0.00,0,WeatherCatV1.15B25,2013-05-12 07:56:00,
2013-05-12 04:01:00,49.1,46.3,29.71,East,85,0.0,0.0,90,0.00,,,0.00,0,WeatherCatV1.15B25,2013-05-12 08:01:00,
2013-05-12 04:06:00,48.9,46.1,29.71,East,85,0.0,0.0,90,0.00,,,0.00,0,WeatherCatV1.15B25,2013-05-12 08:06:00,
2013-05-12 04:11:00,48.5,45.7,29.71,ESE,117,0.0,0.0,90,0.00,,,0.00,0,WeatherCatV1.15B25,2013-05-12 08:11:00,
2013-05-12 04:16:00,48.2,45.4,29.71,ESE,117,0.0,0.0,90,0.00,,,0.00,0,WeatherCatV1.15B25,2013-05-12 08:16:00,
2013-05-12 04:21:00,47.8,45.0,29.71,ESE,117,0.0,0.0,90,0.00,,,0.00,0,WeatherCatV1.15B25,2013-05-12 08:21:00,
2013-05-12 04:26:00,47.6,45.1,29.71,ESE,117,0.0,0.0,91,0.00,,,0.00,0,WeatherCatV1.15B25,2013-05-12 08:26:00,
2013-05-12 04:31:00,47.4,44.6,29.71,SSE,167,0.0,0.0,90,0.00,,,0.00,0,WeatherCatV1.15B25,2013-05-12 08:31:00,
2013-05-12 04:36:00,47.4,44.6,29.72,SW,226,0.0,0.0,90,0.00,,,0.00,0,WeatherCatV1.15B25,2013-05-12 08:36:00,
2013-05-12 04:41:00,47.5,44.4,29.72,SW,226,0.0,0.0,89,0.00,,,0.00,0,WeatherCatV1.15B25,2013-05-12 08:41:00,
2013-05-12 04:46:00,47.7,44.9,29.72,SW,226,0.0,0.0,90,0.00,,,0.00,0,WeatherCatV1.15B25,2013-05-12 08:46:00,
2013-05-12 04:51:00,47.8,44.7,29.72,SW,234,0.0,0.0,89,0.00,,,0.00,0,WeatherCatV1.15B25,2013-05-12 08:51:00,
2013-05-12 04:56:00,47.8,44.7,29.72,SE,145,0.0,2.0,89,0.00,,,0.00,0,WeatherCatV1.15B25,2013-05-12 08:56:00,
2013-05-12 05:01:00,47.8,45.3,29.72,SE,145,0.0,0.0,91,0.00,,,0.00,0,WeatherCatV1.15B25,2013-05-12 09:01:00,
2013-05-12 05:06:00,47.8,45.3,29.72,SE,145,0.0,0.0,91,0.00,,,0.00,0,WeatherCatV1.15B25,2013-05-12 09:06:00,
2013-05-12 05:11:00,47.6,44.8,29.72,ENE,71,0.0,0.0,90,0.00,,,0.00,0,WeatherCatV1.15B25,2013-05-12 09:11:00,
2013-05-12 05:16:00,47.4,44.3,29.72,East,88,0.0,0.0,89,0.00,,,0.00,0,WeatherCatV1.15B25,2013-05-12 09:16:00,
2013-05-12 05:21:00,47.5,44.7,29.72,East,88,0.0,0.0,90,0.00,,,0.00,0,WeatherCatV1.15B25,2013-05-12 09:21:00,
2013-05-12 05:26:00,47.4,44.6,29.72,ESE,108,0.0,0.0,90,0.00,,,0.00,0,WeatherCatV1.15B25,2013-05-12 09:26:00,
2013-05-12 05:31:00,47.4,44.3,29.72,ESE,108,0.0,0.0,89,0.00,,,0.00,0,WeatherCatV1.15B25,2013-05-12 09:31:00,
2013-05-12 05:36:00,47.2,44.1,29.72,ESE,103,0.0,2.0,89,0.00,,,0.00,0,WeatherCatV1.15B25,2013-05-12 09:36:00,
2013-05-12 05:41:00,47.0,44.2,29.72,ESE,107,2.0,2.0,90,0.00,,,0.00,0,WeatherCatV1.15B25,2013-05-12 09:41:00,
2013-05-12 05:46:00,47.0,44.2,29.73,ESE,107,0.0,1.0,90,0.00,,,0.00,0,WeatherCatV1.15B25,2013-05-12 09:46:00,
2013-05-12 05:51:00,46.9,44.1,29.73,ESE,107,0.0,0.0,90,0.00,,,0.00,0,WeatherCatV1.15B25,2013-05-12 09:51:00,
2013-05-12 05:56:00,46.8,44.0,29.73,ESE,107,0.0,0.0,90,0.00,,,0.00,0,WeatherCatV1.15B25,2013-05-12 09:56:00,
2013-05-12 06:01:00,46.7,44.2,29.72,ESE,108,0.0,0.0,91,0.00,,,0.00,0,WeatherCatV1.15B25,2013-05-12 10:01:00,
2013-05-12 06:06:00,46.4,43.9,29.73,ESE,107,0.0,0.0,91,0.00,,,0.00,0,WeatherCatV1.15B25,2013-05-12 10:06:00,
2013-05-12 06:11:00,46.3,43.8,29.73,ESE,107,0.0,0.0,91,0.00,,,0.00,0,WeatherCatV1.15B25,2013-05-12 10:11:00,
2013-05-12 06:16:00,46.3,44.1,29.73,NW,306,0.0,3.0,92,0.00,,,0.01,0,WeatherCatV1.15B25,2013-05-12 10:16:00,
2013-05-12 06:21:00,46.3,44.1,29.73,NW,306,0.0,0.0,92,0.00,,,0.01,0,WeatherCatV1.15B25,2013-05-12 10:21:00,
2013-05-12 06:26:00,46.3,44.1,29.74,NW,306,0.0,0.0,92,0.00,,,0.01,0,WeatherCatV1.15B25,2013-05-12 10:26:00,
2013-05-12 06:31:00,46.1,43.9,29.74,SW,221,0.0,0.0,92,0.00,,,0.01,0,WeatherCatV1.15B25,2013-05-12 10:31:00,
2013-05-12 06:36:00,46.0,43.8,29.74,SW,221,0.0,0.0,92,0.00,,,0.01,7,WeatherCatV1.15B25,2013-05-12 10:36:00,
2013-05-12 06:41:00,45.9,43.7,29.75,SW,221,0.0,0.0,92,0.00,,,0.01,7,WeatherCatV1.15B25,2013-05-12 10:41:00,
2013-05-12 06:46:00,45.9,43.7,29.75,SW,221,0.0,0.0,92,0.00,,,0.01,11,WeatherCatV1.15B25,2013-05-12 10:46:00,
2013-05-12 06:51:00,45.9,44.0,29.75,SW,221,0.0,0.0,93,0.00,,,0.01,12,WeatherCatV1.15B25,2013-05-12 10:51:00,
2013-05-12 06:56:00,46.0,44.1,29.75,SW,221,0.0,0.0,93,0.00,,,0.01,12,WeatherCatV1.15B25,2013-05-12 10:56:00,
2013-05-12 07:01:00,46.0,44.1,29.75,SW,221,0.0,0.0,93,0.00,,,0.01,19,WeatherCatV1.15B25,2013-05-12 11:01:00,
2013-05-12 07:06:00,46.0,44.1,29.75,SW,221,0.0,0.0,93,0.00,,,0.01,26,WeatherCatV1.15B25,2013-05-12 11:06:00,
2013-05-12 07:11:00,46.1,44.2,29.75,SW,221,0.0,0.0,93,0.00,,,0.01,42,WeatherCatV1.15B25,2013-05-12 11:11:00,
2013-05-12 07:16:00,46.3,44.4,29.75,SW,221,0.0,0.0,93,0.00,,,0.01,56,WeatherCatV1.15B25,2013-05-12 11:16:00,
2013-05-12 07:21:00,46.5,44.6,29.75,SW,221,0.0,0.0,93,0.00,,,0.01,76,WeatherCatV1.15B25,2013-05-12 11:21:00,
2013-05-12 07:26:00,46.8,45.2,29.75,SW,221,0.0,0.0,94,0.00,,,0.01,72,WeatherCatV1.15B25,2013-05-12 11:26:00,
2013-05-12 07:31:00,47.2,45.6,29.75,SW,221,0.0,0.0,94,0.00,,,0.01,62,WeatherCatV1.15B25,2013-05-12 11:31:00,
2013-05-12 07:36:00,47.5,45.9,29.76,SW,234,0.0,0.0,94,0.00,,,0.01,79,WeatherCatV1.15B25,2013-05-12 11:36:00,
2013-05-12 07:41:00,47.9,46.3,29.75,SW,235,0.0,0.0,94,0.00,,,0.01,35,WeatherCatV1.15B25,2013-05-12 11:41:00,
2013-05-12 07:46:00,48.4,46.8,29.76,SW,234,0.0,0.0,94,0.00,,,0.01,47,WeatherCatV1.15B25,2013-05-12 11:46:00,
2013-05-12 07:51:00,48.7,46.8,29.76,SW,235,0.0,0.0,93,0.00,,,0.01,35,WeatherCatV1.15B25,2013-05-12 11:51:00,
2013-05-12 07:54:00,48.8,46.9,29.76,SW,234,0.0,0.0,93,0.00,,,0.01,37,WeatherCatV1.15B25,2013-05-12 11:54:00,
2013-05-12 07:59:00,49.2,47.3,29.76,SW,235,0.0,0.0,93,0.00,,,0.01,42,WeatherCatV1.15B25,2013-05-12 11:59:00,
2013-05-12 08:04:00,49.4,47.5,29.76,SW,234,0.0,0.0,93,0.00,,,0.01,46,WeatherCatV1.15B25,2013-05-12 12:04:00,
2013-05-12 08:09:00,49.6,47.7,29.76,SW,235,0.0,0.0,93,0.00,,,0.01,47,WeatherCatV1.15B25,2013-05-12 12:09:00,
2013-05-12 08:14:00,49.7,47.8,29.76,SSE,153,0.0,0.0,93,0.00,,,0.01,65,WeatherCatV1.15B25,2013-05-12 12:14:00,
2013-05-12 08:19:00,49.8,47.6,29.76,SSE,152,0.0,0.0,92,0.00,,,0.01,76,WeatherCatV1.15B25,2013-05-12 12:19:00,
2013-05-12 08:24:00,49.8,47.3,29.77,SW,236,0.0,0.0,91,0.00,,,0.01,84,WeatherCatV1.15B25,2013-05-12 12:24:00,
2013-05-12 08:29:00,49.9,46.8,29.77,SW,236,0.0,0.0,89,0.00,,,0.01,65,WeatherCatV1.15B25,2013-05-12 12:29:00,
2013-05-12 08:34:00,50.3,48.1,29.77,SW,236,0.0,0.0,92,0.00,,,0.01,127,WeatherCatV1.15B25,2013-05-12 12:34:00,
2013-05-12 08:39:00,50.7,47.9,29.77,SW,236,0.0,0.0,90,0.00,,,0.01,91,WeatherCatV1.15B25,2013-05-12 12:39:00,
2013-05-12 08:44:00,51.0,47.6,29.77,SW,236,0.0,0.0,88,0.00,,,0.01,63,WeatherCatV1.15B25,2013-05-12 12:44:00,
2013-05-12 08:49:00,51.5,48.1,29.78,NE,55,0.0,0.0,88,0.00,,,0.01,415,WeatherCatV1.15B25,2013-05-12 12:49:00,
2013-05-12 08:54:00,52.3,48.2,29.77,NE,51,0.0,2.0,86,0.00,,,0.01,459,WeatherCatV1.15B25,2013-05-12 12:54:00,
2013-05-12 08:59:00,53.1,48.4,29.78,WNW,298,0.0,0.0,84,0.00,,,0.01,446,WeatherCatV1.15B25,2013-05-12 12:59:00,
2013-05-12 09:04:00,53.7,49.0,29.77,NE,56,1.0,1.0,84,0.00,,,0.01,503,WeatherCatV1.15B25,2013-05-12 13:04:00,
2013-05-12 09:09:00,54.3,49.6,29.78,ENE,65,0.0,0.0,84,0.00,,,0.01,548,WeatherCatV1.15B25,2013-05-12 13:09:00,
2013-05-12 09:14:00,54.6,48.9,29.78,NE,44,0.0,2.0,81,0.00,,,0.01,545,WeatherCatV1.15B25,2013-05-12 13:14:00,
2013-05-12 09:19:00,54.9,49.8,29.78,ENE,78,0.0,1.0,83,0.00,,,0.01,564,WeatherCatV1.15B25,2013-05-12 13:19:00,
2013-05-12 09:24:00,55.4,48.3,29.78,East,100,0.0,2.0,77,0.00,,,0.01,598,WeatherCatV1.15B25,2013-05-12 13:24:00,
2013-05-12 09:29:00,55.8,49.0,29.78,South,177,0.0,0.0,78,0.00,,,0.01,592,WeatherCatV1.15B25,2013-05-12 13:29:00,
2013-05-12 09:34:00,56.5,47.9,29.78,ENE,75,1.0,2.0,73,0.00,,,0.01,619,WeatherCatV1.15B25,2013-05-12 13:34:00,
2013-05-12 09:39:00,57.1,48.5,29.77,East,88,0.0,1.0,73,0.00,,,0.01,631,WeatherCatV1.15B25,2013-05-12 13:39:00,
2013-05-12 09:44:00,57.7,50.2,29.77,ENE,59,3.0,3.0,76,0.00,,,0.01,642,WeatherCatV1.15B25,2013-05-12 13:44:00,
2013-05-12 09:49:00,57.9,48.2,29.77,WNW,286,0.0,1.0,70,0.00,,,0.01,666,WeatherCatV1.15B25,2013-05-12 13:49:00,
2013-05-12 09:54:00,58.0,47.1,29.77,West,277,0.0,3.0,67,0.00,,,0.01,675,WeatherCatV1.15B25,2013-05-12 13:54:00,
2013-05-12 09:59:00,58.2,47.7,29.77,NE,38,0.0,2.0,68,0.00,,,0.01,390,WeatherCatV1.15B25,2013-05-12 13:59:00,
2013-05-12 10:04:00,58.4,47.9,29.77,WNW,298,2.0,4.0,68,0.00,,,0.01,258,WeatherCatV1.15B25,2013-05-12 14:04:00,
2013-05-12 10:09:00,58.2,46.5,29.77,West,280,1.0,2.0,65,0.00,,,0.01,506,WeatherCatV1.15B25,2013-05-12 14:09:00,
2013-05-12 10:14:00,57.7,46.4,29.77,ESE,118,2.0,2.0,66,0.00,,,0.01,462,WeatherCatV1.15B25,2013-05-12 14:14:00,
2013-05-12 10:19:00,57.6,45.9,29.77,East,95,1.0,3.0,65,0.00,,,0.01,714,WeatherCatV1.15B25,2013-05-12 14:19:00,
2013-05-12 10:24:00,57.8,46.1,29.77,SE,134,1.0,2.0,65,0.00,,,0.01,779,WeatherCatV1.15B25,2013-05-12 14:24:00,
2013-05-12 10:29:00,58.1,45.1,29.77,WSW,242,0.0,2.0,62,0.00,,,0.01,800,WeatherCatV1.15B25,2013-05-12 14:29:00,
2013-05-12 10:34:00,58.5,45.9,29.77,North,355,1.0,3.0,63,0.00,,,0.01,812,WeatherCatV1.15B25,2013-05-12 14:34:00,
2013-05-12 10:39:00,59.0,46.8,29.77,NNW,340,0.0,3.0,64,0.00,,,0.01,824,WeatherCatV1.15B25,2013-05-12 14:39:00,
2013-05-12 10:44:00,59.4,47.6,29.77,East,86,2.0,2.0,65,0.00,,,0.01,763,WeatherCatV1.15B25,2013-05-12 14:44:00,
2013-05-12 10:49:00,59.8,45.9,29.77,NNW,334,2.0,2.0,60,0.00,,,0.01,624,WeatherCatV1.15B25,2013-05-12 14:49:00,
2013-05-12 10:54:00,59.9,45.5,29.77,WNW,290,0.0,2.0,59,0.00,,,0.01,396,WeatherCatV1.15B25,2013-05-12 14:54:00,
2013-05-12 10:59:00,60.0,45.6,29.77,ESE,119,2.0,2.0,59,0.00,,,0.01,875,WeatherCatV1.15B25,2013-05-12 14:59:00,
2013-05-12 11:04:00,60.2,44.4,29.77,ESE,118,0.0,1.0,56,0.00,,,0.01,886,WeatherCatV1.15B25,2013-05-12 15:04:00,
2013-05-12 11:09:00,60.8,45.5,29.77,NE,56,0.0,2.0,57,0.00,,,0.01,902,WeatherCatV1.15B25,2013-05-12 15:09:00,
2013-05-12 11:14:00,61.6,46.2,29.78,ESE,123,0.0,5.0,57,0.00,,,0.01,912,WeatherCatV1.15B25,2013-05-12 15:14:00,
2013-05-12 11:17:00,61.7,45.8,29.77,ESE,123,1.0,7.0,56,0.00,,,0.01,918,WeatherCatV1.15B25,2013-05-12 15:17:00,
2013-05-12 11:22:00,61.5,46.6,29.78,NE,42,1.0,2.0,58,0.00,,,0.01,933,WeatherCatV1.15B25,2013-05-12 15:22:00,
2013-05-12 11:27:00,61.1,45.3,29.78,NNE,17,2.0,4.0,56,0.00,,,0.01,942,WeatherCatV1.15B25,2013-05-12 15:27:00,
2013-05-12 11:32:00,61.1,45.3,29.78,East,88,4.0,6.0,56,0.00,,,0.01,949,WeatherCatV1.15B25,2013-05-12 15:32:00,
2013-05-12 11:37:00,60.9,46.0,29.78,SE,130,0.0,10.0,58,0.00,,,0.01,962,WeatherCatV1.15B25,2013-05-12 15:37:00,
2013-05-12 11:42:00,61.0,46.1,29.78,ENE,65,3.0,5.0,58,0.00,,,0.01,969,WeatherCatV1.15B25,2013-05-12 15:42:00,
2013-05-12 11:47:00,60.7,46.3,29.79,North,349,3.0,5.0,59,0.00,,,0.01,974,WeatherCatV1.15B25,2013-05-12 15:47:00,
2013-05-12 11:52:00,60.5,45.6,29.79,ESE,102,0.0,9.0,58,0.00,,,0.01,977,WeatherCatV1.15B25,2013-05-12 15:52:00,
2013-05-12 11:57:00,60.7,47.2,29.78,SSE,147,0.0,1.0,61,0.00,,,0.01,993,WeatherCatV1.15B25,2013-05-12 15:57:00,
2013-05-12 12:02:00,61.5,46.6,29.79,NNW,342,2.0,6.0,58,0.00,,,0.01,997,WeatherCatV1.15B25,2013-05-12 16:02:00,
2013-05-12 12:07:00,61.4,45.1,29.79,WNW,284,0.0,4.0,55,0.00,,,0.01,1014,WeatherCatV1.15B25,2013-05-12 16:07:00,
2013-05-12 12:12:00,61.3,45.0,29.79,ENE,77,0.0,1.0,55,0.00,,,0.01,1020,WeatherCatV1.15B25,2013-05-12 16:12:00,
2013-05-12 12:17:00,61.3,44.0,29.79,North,11,0.0,6.0,53,0.00,,,0.01,1028,WeatherCatV1.15B25,2013-05-12 16:17:00,
2013-05-12 12:22:00,61.4,44.6,29.79,ENE,75,0.0,3.0,54,0.00,,,0.01,1042,WeatherCatV1.15B25,2013-05-12 16:22:00,
2013-05-12 12:27:00,61.9,44.6,29.79,ESE,106,5.0,7.0,53,0.00,,,0.01,1048,WeatherCatV1.15B25,2013-05-12 16:27:00,
2013-05-12 12:32:00,62.1,43.2,29.78,NNE,19,0.0,6.0,50,0.00,,,0.01,1062,WeatherCatV1.15B25,2013-05-12 16:32:00,
2013-05-12 12:37:00,62.2,44.4,29.78,NNE,17,5.0,6.0,52,0.00,,,0.01,1060,WeatherCatV1.15B25,2013-05-12 16:37:00,
2013-05-12 12:42:00,62.4,44.0,29.78,SE,130,2.0,8.0,51,0.00,,,0.01,1058,WeatherCatV1.15B25,2013-05-12 16:42:00,
2013-05-12 12:47:00,62.5,44.1,29.79,ESE,116,0.0,3.0,51,0.00,,,0.01,1060,WeatherCatV1.15B25,2013-05-12 16:47:00,
2013-05-12 12:52:00,62.7,43.3,29.79,NE,40,0.0,4.0,49,0.00,,,0.01,1062,WeatherCatV1.15B25,2013-05-12 16:52:00,
2013-05-12 12:57:00,62.9,42.9,29.79,SSE,153,3.0,7.0,48,0.00,,,0.01,1063,WeatherCatV1.15B25,2013-05-12 16:57:00,
2013-05-12 13:02:00,62.8,42.8,29.79,East,94,5.0,6.0,48,0.00,,,0.01,1067,WeatherCatV1.15B25,2013-05-12 17:02:00,
2013-05-12 13:07:00,62.7,42.2,29.78,NE,42,0.0,3.0,47,0.00,,,0.01,1069,WeatherCatV1.15B25,2013-05-12 17:07:00,
2013-05-12 13:12:00,62.8,41.7,29.78,North,350,2.0,3.0,46,0.00,,,0.01,1067,WeatherCatV1.15B25,2013-05-12 17:12:00,
2013-05-12 13:17:00,62.8,41.7,29.78,South,188,0.0,2.0,46,0.00,,,0.01,1063,WeatherCatV1.15B25,2013-05-12 17:17:00,
2013-05-12 13:22:00,63.2,42.1,29.78,NNW,342,2.0,3.0,46,0.00,,,0.01,1071,WeatherCatV1.15B25,2013-05-12 17:22:00,
2013-05-12 13:27:00,63.3,40.4,29.78,WNW,290,2.0,4.0,43,0.00,,,0.01,1071,WeatherCatV1.15B25,2013-05-12 17:27:00,
2013-05-12 13:32:00,63.3,41.0,29.79,West,279,2.0,3.0,44,0.00,,,0.01,1062,WeatherCatV1.15B25,2013-05-12 17:32:00,
2013-05-12 13:37:00,63.1,40.8,29.79,NW,321,0.0,6.0,44,0.00,,,0.01,1065,WeatherCatV1.15B25,2013-05-12 17:37:00,
2013-05-12 13:42:00,63.3,42.2,29.78,SSE,149,0.0,2.0,46,0.00,,,0.01,1086,WeatherCatV1.15B25,2013-05-12 17:42:00,
2013-05-12 13:47:00,63.6,40.7,29.79,NW,314,5.0,5.0,43,0.00,,,0.01,1078,WeatherCatV1.15B25,2013-05-12 17:47:00,
2013-05-12 13:49:00,63.6,40.7,29.79,NNW,336,0.0,3.0,43,0.00,,,0.01,1069,WeatherCatV1.15B25,2013-05-12 17:49:00,
2013-05-12 13:54:00,63.4,39.9,29.78,NNW,327,4.0,6.0,42,0.00,,,0.01,1062,WeatherCatV1.15B25,2013-05-12 17:54:00,
2013-05-12 13:59:00,63.3,40.4,29.78,East,82,2.0,4.0,43,0.00,,,0.01,1053,WeatherCatV1.15B25,2013-05-12 17:59:00,
2013-05-12 14:04:00,63.1,39.6,29.78,NW,312,2.0,6.0,42,0.00,,,0.01,1049,WeatherCatV1.15B25,2013-05-12 18:04:00,
2013-05-12 14:09:00,63.0,40.1,29.78,SE,134,0.0,7.0,43,0.00,,,0.01,1042,WeatherCatV1.15B25,2013-05-12 18:09:00,
2013-05-12 14:14:00,63.0,40.1,29.78,North,9,0.0,7.0,43,0.00,,,0.01,1039,WeatherCatV1.15B25,2013-05-12 18:14:00,
2013-05-12 14:19:00,62.8,40.6,29.78,ESE,107,0.0,1.0,44,0.00,,,0.01,1028,WeatherCatV1.15B25,2013-05-12 18:19:00,
2013-05-12 14:24:00,63.2,40.9,29.78,North,5,1.0,5.0,44,0.00,,,0.01,1037,WeatherCatV1.15B25,2013-05-12 18:24:00,
2013-05-12 14:29:00,63.3,40.4,29.78,WNW,284,2.0,10.0,43,0.00,,,0.01,1028,WeatherCatV1.15B25,2013-05-12 18:29:00,
2013-05-12 14:34:00,63.6,40.7,29.78,WNW,300,2.0,3.0,43,0.00,,,0.01,1018,WeatherCatV1.15B25,2013-05-12 18:34:00,
2013-05-12 14:39:00,63.7,40.2,29.78,SSE,148,0.0,7.0,42,0.00,,,0.01,932,WeatherCatV1.15B25,2013-05-12 18:39:00,
2013-05-12 14:44:00,63.5,40.0,29.78,WNW,299,2.0,4.0,42,0.00,,,0.01,146,WeatherCatV1.15B25,2013-05-12 18:44:00,
2013-05-12 14:49:00,63.5,40.6,29.78,North,5,0.0,3.0,43,0.00,,,0.01,990,WeatherCatV1.15B25,2013-05-12 18:49:00,
2013-05-12 14:54:00,63.4,39.3,29.78,NW,311,1.0,3.0,41,0.00,,,0.01,986,WeatherCatV1.15B25,2013-05-12 18:54:00,
2013-05-12 14:59:00,63.3,41.0,29.78,SW,231,0.0,2.0,44,0.00,,,0.01,981,WeatherCatV1.15B25,2013-05-12 18:59:00,
2013-05-12 15:04:00,63.5,39.4,29.78,ENE,74,1.0,6.0,41,0.00,,,0.01,970,WeatherCatV1.15B25,2013-05-12 19:04:00,
2013-05-12 15:09:00,63.5,39.4,29.78,NNE,28,3.0,4.0,41,0.00,,,0.01,972,WeatherCatV1.15B25,2013-05-12 19:09:00,
2013-05-12 15:14:00,63.5,40.0,29.78,WNW,298,2.0,10.0,42,0.00,,,0.01,953,WeatherCatV1.15B25,2013-05-12 19:14:00,
2013-05-12 15:19:00,63.5,39.4,29.78,NW,317,2.0,5.0,41,0.00,,,0.01,940,WeatherCatV1.15B25,2013-05-12 19:19:00,
2013-05-12 15:24:00,63.3,39.8,29.78,South,188,4.0,7.0,42,0.00,,,0.01,933,WeatherCatV1.15B25,2013-05-12 19:24:00,
2013-05-12 15:29:00,63.3,40.4,29.78,ESE,122,4.0,4.0,43,0.00,,,0.01,925,WeatherCatV1.15B25,2013-05-12 19:29:00,
2013-05-12 15:34:00,63.4,39.9,29.77,ENE,71,0.0,10.0,42,0.00,,,0.01,914,WeatherCatV1.15B25,2013-05-12 19:34:00,
2013-05-12 15:39:00,63.4,38.7,29.78,SSW,211,2.0,12.0,40,0.00,,,0.01,896,WeatherCatV1.15B25,2013-05-12 19:39:00,
2013-05-12 15:44:00,63.5,39.4,29.78,NE,48,0.0,2.0,41,0.00,,,0.01,886,WeatherCatV1.15B25,2013-05-12 19:44:00,
2013-05-12 15:49:00,63.5,38.7,29.78,NNE,14,0.0,2.0,40,0.00,,,0.01,870,WeatherCatV1.15B25,2013-05-12 19:49:00,
2013-05-12 15:54:00,63.2,38.5,29.77,NNW,337,0.0,2.0,40,0.00,,,0.01,865,WeatherCatV1.15B25,2013-05-12 19:54:00,
2013-05-12 15:59:00,63.1,38.4,29.77,NNE,32,2.0,5.0,40,0.00,,,0.01,431,WeatherCatV1.15B25,2013-05-12 19:59:00,
2013-05-12 16:04:00,62.7,39.3,29.77,WNW,298,5.0,5.0,42,0.00,,,0.01,120,WeatherCatV1.15B25,2013-05-12 20:04:00,
2013-05-12 16:09:00,62.3,38.9,29.77,West,263,0.0,1.0,42,0.00,,,0.01,100,WeatherCatV1.15B25,2013-05-12 20:09:00,
2013-05-12 16:14:00,62.0,38.0,29.77,South,169,0.0,1.0,41,0.00,,,0.01,97,WeatherCatV1.15B25,2013-05-12 20:14:00,
2013-05-12 16:19:00,61.5,38.2,29.77,North,11,2.0,4.0,42,0.00,,,0.01,123,WeatherCatV1.15B25,2013-05-12 20:19:00,
2013-05-12 16:24:00,61.2,38.5,29.77,NW,306,4.0,6.0,43,0.00,,,0.01,127,WeatherCatV1.15B25,2013-05-12 20:24:00,
2013-05-12 16:29:00,61.0,38.3,29.77,WSW,246,0.0,4.0,43,0.00,,,0.01,179,WeatherCatV1.15B25,2013-05-12 20:29:00,
2013-05-12 16:34:00,61.1,37.8,29.77,ENE,69,0.0,9.0,42,0.00,,,0.01,431,WeatherCatV1.15B25,2013-05-12 20:34:00,
2013-05-12 16:39:00,61.2,38.5,29.77,NW,313,3.0,5.0,43,0.00,,,0.01,418,WeatherCatV1.15B25,2013-05-12 20:39:00,
2013-05-12 16:44:00,61.2,37.9,29.78,East,93,0.0,4.0,42,0.00,,,0.01,686,WeatherCatV1.15B25,2013-05-12 20:44:00,
2013-05-12 16:49:00,61.2,38.5,29.78,NW,304,5.0,5.0,43,0.00,,,0.01,318,WeatherCatV1.15B25,2013-05-12 20:49:00,
2013-05-12 16:54:00,61.3,38.0,29.78,East,86,0.0,6.0,42,0.00,,,0.01,684,WeatherCatV1.15B25,2013-05-12 20:54:00,
2013-05-12 16:59:00,61.3,38.6,29.78,NNE,15,7.0,9.0,43,0.00,,,0.01,642,WeatherCatV1.15B25,2013-05-12 20:59:00,
2013-05-12 17:04:00,60.9,37.7,29.79,WSW,246,0.0,4.0,42,0.00,,,0.01,200,WeatherCatV1.15B25,2013-05-12 21:04:00,
2013-05-12 17:09:00,60.5,37.9,29.78,WNW,296,2.0,4.0,43,0.00,,,0.01,125,WeatherCatV1.15B25,2013-05-12 21:09:00,
2013-05-12 17:14:00,60.4,37.8,29.78,SSW,209,0.0,6.0,43,0.00,,,0.01,348,WeatherCatV1.15B25,2013-05-12 21:14:00,
2013-05-12 17:19:00,60.1,37.5,29.79,WSW,247,3.0,4.0,43,0.00,,,0.01,251,WeatherCatV1.15B25,2013-05-12 21:19:00,
2013-05-12 17:24:00,59.8,37.3,29.79,WNW,283,0.0,4.0,43,0.00,,,0.01,113,WeatherCatV1.15B25,2013-05-12 21:24:00,
2013-05-12 17:29:00,59.4,37.5,29.80,ESE,119,1.0,4.0,44,0.00,,,0.01,58,WeatherCatV1.15B25,2013-05-12 21:29:00,
2013-05-12 17:34:00,59.0,36.5,29.80,NW,320,1.0,7.0,43,0.00,,,0.01,54,WeatherCatV1.15B25,2013-05-12 21:34:00,
2013-05-12 17:39:00,59.0,35.9,29.80,ENE,78,4.0,7.0,42,0.00,,,0.01,53,WeatherCatV1.15B25,2013-05-12 21:39:00,
2013-05-12 17:44:00,58.7,36.8,29.81,WNW,295,3.0,6.0,44,0.00,,,0.01,51,WeatherCatV1.15B25,2013-05-12 21:44:00,
2013-05-12 17:49:00,58.5,37.2,29.81,North,9,0.0,0.0,45,0.00,,,0.01,49,WeatherCatV1.15B25,2013-05-12 21:49:00,
2013-05-12 17:54:00,58.3,37.1,29.81,ESE,105,0.0,2.0,45,0.00,,,0.01,47,WeatherCatV1.15B25,2013-05-12 21:54:00,
2013-05-12 17:59:00,58.1,36.3,29.81,WNW,286,3.0,3.0,44,0.00,,,0.01,46,WeatherCatV1.15B25,2013-05-12 21:59:00,
2013-05-12 18:04:00,57.9,35.5,29.81,WNW,291,3.0,4.0,43,0.00,,,0.01,44,WeatherCatV1.15B25,2013-05-12 22:04:00,
2013-05-12 18:09:00,57.6,35.3,29.81,South,171,0.0,3.0,43,0.00,,,0.01,42,WeatherCatV1.15B25,2013-05-12 22:09:00,
2013-05-12 18:14:00,57.4,36.2,29.81,WNW,288,0.0,4.0,45,0.00,,,0.01,40,WeatherCatV1.15B25,2013-05-12 22:14:00,
2013-05-12 18:19:00,57.3,36.1,29.81,NW,319,0.0,6.0,45,0.00,,,0.01,39,WeatherCatV1.15B25,2013-05-12 22:19:00,
2013-05-12 18:24:00,57.2,35.5,29.82,ENE,61,0.0,3.0,44,0.00,,,0.01,35,WeatherCatV1.15B25,2013-05-12 22:24:00,
2013-05-12 18:29:00,57.0,35.3,29.82,NNE,33,0.0,3.0,44,0.00,,,0.01,33,WeatherCatV1.15B25,2013-05-12 22:29:00,
2013-05-12 18:34:00,56.8,35.1,29.82,NW,317,0.0,4.0,44,0.00,,,0.01,32,WeatherCatV1.15B25,2013-05-12 22:34:00,
2013-05-12 18:39:00,56.6,34.9,29.82,ENE,67,1.0,9.0,44,0.00,,,0.01,30,WeatherCatV1.15B25,2013-05-12 22:39:00,
2013-05-12 18:44:00,56.5,35.4,29.83,East,84,1.0,7.0,45,0.00,,,0.01,28,WeatherCatV1.15B25,2013-05-12 22:44:00,
2013-05-12 18:49:00,56.3,35.2,29.83,SSW,202,0.0,2.0,45,0.00,,,0.01,25,WeatherCatV1.15B25,2013-05-12 22:49:00,
2013-05-12 18:54:00,56.1,35.1,29.83,ENE,72,4.0,4.0,45,0.00,,,0.01,19,WeatherCatV1.15B25,2013-05-12 22:54:00,
2013-05-12 18:59:00,55.9,35.4,29.83,NNW,341,0.0,0.0,46,0.00,,,0.01,16,WeatherCatV1.15B25,2013-05-12 22:59:00,
2013-05-12 19:04:00,55.7,35.2,29.83,NW,317,3.0,5.0,46,0.00,,,0.01,16,WeatherCatV1.15B25,2013-05-12 23:04:00,
2013-05-12 19:09:00,55.5,35.1,29.83,West,264,1.0,3.0,46,0.00,,,0.01,14,WeatherCatV1.15B25,2013-05-12 23:09:00,
2013-05-12 19:14:00,55.3,34.9,29.83,West,268,0.0,2.0,46,0.00,,,0.01,14,WeatherCatV1.15B25,2013-05-12 23:14:00,
2013-05-12 19:19:00,55.1,34.7,29.84,NNE,17,4.0,4.0,46,0.00,,,0.01,14,WeatherCatV1.15B25,2013-05-12 23:19:00,
2013-05-12 19:24:00,55.0,35.1,29.84,ENE,62,0.0,0.0,47,0.00,,,0.01,12,WeatherCatV1.15B25,2013-05-12 23:24:00,
2013-05-12 19:29:00,54.8,35.0,29.84,SE,126,0.0,0.0,47,0.00,,,0.01,12,WeatherCatV1.15B25,2013-05-12 23:29:00,
2013-05-12 19:34:00,54.5,35.7,29.84,WNW,283,0.0,3.0,49,0.00,,,0.01,12,WeatherCatV1.15B25,2013-05-12 23:34:00,
2013-05-12 19:39:00,54.3,35.6,29.84,NE,43,0.0,0.0,49,0.00,,,0.01,11,WeatherCatV1.15B25,2013-05-12 23:39:00,
2013-05-12 19:44:00,54.1,35.4,29.85,WNW,297,0.0,1.0,49,0.00,,,0.01,11,WeatherCatV1.15B25,2013-05-12 23:44:00,
2013-05-12 19:49:00,53.9,35.2,29.85,North,355,0.0,1.0,49,0.00,,,0.01,9,WeatherCatV1.15B25,2013-05-12 23:49:00,
2013-05-12 19:54:00,53.6,34.9,29.84,NNW,346,0.0,0.0,49,0.00,,,0.01,9,WeatherCatV1.15B25,2013-05-12 23:54:00,
2013-05-12 19:59:00,53.4,34.7,29.85,NNE,19,0.0,0.0,49,0.00,,,0.01,7,WeatherCatV1.15B25,2013-05-12 23:59:00,
2013-05-12 20:04:00,53.2,35.0,29.85,NNE,19,0.0,0.0,50,0.00,,,0.01,7,WeatherCatV1.15B25,2013-05-13 00:04:00,
2013-05-12 20:09:00,53.0,34.9,29.85,NNE,19,0.0,0.0,50,0.00,,,0.01,5,WeatherCatV1.15B25,2013-05-13 00:09:00,
2013-05-12 20:14:00,52.8,35.2,29.85,NNE,20,0.0,0.0,51,0.00,,,0.01,5,WeatherCatV1.15B25,2013-05-13 00:14:00,
2013-05-12 20:19:00,52.5,34.9,29.85,West,269,0.0,2.0,51,0.00,,,0.01,5,WeatherCatV1.15B25,2013-05-13 00:19:00,
2013-05-12 20:24:00,52.2,35.1,29.85,West,269,0.0,0.0,52,0.00,,,0.01,5,WeatherCatV1.15B25,2013-05-13 00:24:00,
2013-05-12 20:29:00,52.1,35.0,29.85,WSW,242,0.0,1.0,52,0.00,,,0.01,0,WeatherCatV1.15B25,2013-05-13 00:29:00,
2013-05-12 20:34:00,51.8,35.2,29.85,WSW,241,0.0,1.0,53,0.00,,,0.01,0,WeatherCatV1.15B25,2013-05-13 00:34:00,
2013-05-12 20:39:00,51.5,35.4,29.86,NNW,348,0.0,1.0,54,0.00,,,0.01,0,WeatherCatV1.15B25,2013-05-13 00:39:00,
2013-05-12 20:44:00,51.3,36.6,29.86,NNW,348,0.0,0.0,57,0.00,,,0.01,0,WeatherCatV1.15B25,2013-05-13 00:44:00,
2013-05-12 20:49:00,51.0,36.7,29.86,NNW,348,0.0,0.0,58,0.00,,,0.01,0,WeatherCatV1.15B25,2013-05-13 00:49:00,
2013-05-12 20:54:00,50.6,36.4,29.86,NNW,348,0.0,0.0,58,0.00,,,0.01,0,WeatherCatV1.15B25,2013-05-13 00:54:00,
2013-05-12 20:59:00,50.3,37.0,29.86,NNW,348,0.0,0.0,60,0.00,,,0.01,0,WeatherCatV1.15B25,2013-05-13 00:59:00,
2013-05-12 21:04:00,49.9,37.0,29.86,NNW,348,0.0,0.0,61,0.00,,,0.01,0,WeatherCatV1.15B25,2013-05-13 01:04:00,
2013-05-12 21:09:00,49.5,36.6,29.86,NNW,348,0.0,1.0,61,0.00,,,0.01,0,WeatherCatV1.15B25,2013-05-13 01:09:00,
2013-05-12 21:14:00,49.1,36.6,29.86,NNW,348,0.0,0.0,62,0.00,,,0.01,0,WeatherCatV1.15B25,2013-05-13 01:14:00,
2013-05-12 21:19:00,48.6,36.6,29.87,NNW,348,0.0,0.0,63,0.00,,,0.01,0,WeatherCatV1.15B25,2013-05-13 01:19:00,
2013-05-12 21:24:00,48.3,37.1,29.87,NNW,348,0.0,0.0,65,0.00,,,0.01,0,WeatherCatV1.15B25,2013-05-13 01:24:00,
2013-05-12 21:29:00,47.9,37.1,29.87,NNW,348,0.0,0.0,66,0.00,,,0.01,0,WeatherCatV1.15B25,2013-05-13 01:29:00,
2013-05-12 21:34:00,47.6,36.8,29.87,NNW,348,0.0,0.0,66,0.00,,,0.01,0,WeatherCatV1.15B25,2013-05-13 01:34:00,
2013-05-12 21:39:00,47.3,36.9,29.88,NNW,348,0.0,0.0,67,0.00,,,0.01,0,WeatherCatV1.15B25,2013-05-13 01:39:00,
2013-05-12 21:44:00,46.9,36.5,29.88,NNW,348,0.0,0.0,67,0.00,,,0.01,0,WeatherCatV1.15B25,2013-05-13 01:44:00,
2013-05-12 21:49:00,46.6,36.6,29.89,NNW,348,0.0,0.0,68,0.00,,,0.01,0,WeatherCatV1.15B25,2013-05-13 01:49:00,
2013-05-12 21:54:00,46.4,36.8,29.89,NNW,348,0.0,0.0,69,0.00,,,0.01,0,WeatherCatV1.15B25,2013-05-13 01:54:00,
2013-05-12 21:59:00,46.2,35.9,29.89,NNW,348,0.0,0.0,67,0.00,,,0.01,0,WeatherCatV1.15B25,2013-05-13 01:59:00,
2013-05-12 22:04:00,46.0,35.7,29.89,NNW,348,0.0,0.0,67,0.00,,,0.01,0,WeatherCatV1.15B25,2013-05-13 02:04:00,
2013-05-12 22:09:00,46.0,34.1,29.89,WNW,294,0.0,2.0,63,0.00,,,0.01,0,WeatherCatV1.15B25,2013-05-13 02:09:00,
2013-05-12 22:14:00,45.9,34.4,29.89,WNW,294,0.0,0.0,64,0.00,,,0.01,0,WeatherCatV1.15B25,2013-05-13 02:14:00,
2013-05-12 22:19:00,45.9,35.2,29.89,West,264,0.0,0.0,66,0.00,,,0.01,0,WeatherCatV1.15B25,2013-05-13 02:19:00,
2013-05-12 22:24:00,45.8,35.5,29.89,West,265,0.0,0.0,67,0.00,,,0.01,0,WeatherCatV1.15B25,2013-05-13 02:24:00,
2013-05-12 22:29:00,45.6,36.0,29.89,West,265,0.0,0.0,69,0.00,,,0.01,0,WeatherCatV1.15B25,2013-05-13 02:29:00,
2013-05-12 22:34:00,45.4,35.8,29.89,West,265,0.0,0.0,69,0.00,,,0.01,0,WeatherCatV1.15B25,2013-05-13 02:34:00,
2013-05-12 22:39:00,45.2,35.6,29.90,West,265,0.0,0.0,69,0.00,,,0.01,0,WeatherCatV1.15B25,2013-05-13 02:39:00,
2013-05-12 22:44:00,45.0,34.7,29.90,West,264,0.0,0.0,67,0.00,,,0.01,0,WeatherCatV1.15B25,2013-05-13 02:44:00,
2013-05-12 22:49:00,44.9,34.6,29.90,West,265,0.0,0.0,67,0.00,,,0.01,0,WeatherCatV1.15B25,2013-05-13 02:49:00,
2013-05-12 22:54:00,44.8,34.1,29.90,WSW,238,0.0,2.0,66,0.00,,,0.01,0,WeatherCatV1.15B25,2013-05-13 02:54:00,
2013-05-12 22:59:00,44.7,34.0,29.90,SW,214,0.0,3.0,66,0.00,,,0.01,0,WeatherCatV1.15B25,2013-05-13 02:59:00,
2013-05-12 23:04:00,44.6,34.0,29.90,SSW,213,0.0,1.0,66,0.00,,,0.01,0,WeatherCatV1.15B25,2013-05-13 03:04:00,
2013-05-12 23:09:00,44.5,34.2,29.90,SW,214,0.0,0.0,67,0.00,,,0.01,0,WeatherCatV1.15B25,2013-05-13 03:09:00,
2013-05-12 23:14:00,44.3,34.4,29.90,SSW,213,0.0,0.0,68,0.00,,,0.01,0,WeatherCatV1.15B25,2013-05-13 03:14:00,
2013-05-12 23:19:00,44.3,34.4,29.90,SSW,213,0.0,0.0,68,0.00,,,0.01,0,WeatherCatV1.15B25,2013-05-13 03:19:00,
2013-05-12 23:24:00,44.2,34.7,29.90,SSW,213,0.0,0.0,69,0.00,,,0.01,0,WeatherCatV1.15B25,2013-05-13 03:24:00,
2013-05-12 23:29:00,44.1,34.2,29.91,SW,214,0.0,0.0,68,0.00,,,0.01,0,WeatherCatV1.15B25,2013-05-13 03:29:00,
2013-05-12 23:34:00,44.0,34.5,29.91,SSW,213,0.0,0.0,69,0.00,,,0.01,0,WeatherCatV1.15B25,2013-05-13 03:34:00,
2013-05-12 23:39:00,43.8,34.7,29.91,SW,227,0.0,1.0,70,0.00,,,0.01,0,WeatherCatV1.15B25,2013-05-13 03:39:00,
2013-05-12 23:44:00,43.6,34.5,29.91,SW,227,0.0,0.0,70,0.00,,,0.01,0,WeatherCatV1.15B25,2013-05-13 03:44:00,
2013-05-12 23:49:00,43.5,34.0,29.91,SW,227,0.0,0.0,69,0.00,,,0.01,0,WeatherCatV1.15B25,2013-05-13 03:49:00,
2013-05-12 23:54:00,43.3,34.2,29.91,SW,227,0.0,0.0,70,0.00,,,0.01,0,WeatherCatV1.15B25,2013-05-13 03:54:00,
2013-05-12 23:59:00,43.2,34.4,29.91,SW,227,0.0,0.0,71,0.00,,,0.01,0,WeatherCatV1.15B25,2013-05-13 03:59:00,